Time;durP1;ratioP1;P1;durP2;ratioP2;P2;SDS_P1;SDS_P2;PMS_P1;PMS_P2;Temp;Humidity;BMP_temperature;BMP_pressure;BME280_temperature;BME280_humidity;BME280_pressure;Samples;Min_cycle;Max_cycle;Signal;HPM_P1;HPM_P2
2022/02/03 00:01:09;;;;;;;22.60;13.23;;;10.50;99.90;;;;;;5055417;28;20400;-65
2022/02/03 00:03:47;;;;;;;20.07;14.40;;;10.60;99.90;;;;;;5054499;28;20424;-65
2022/02/03 00:06:17;;;;;;;20.03;14.20;;;10.50;99.90;;;;;;5055463;28;20408;-65
2022/02/03 00:22:13;;;;;;;11.80;7.90;;;10.60;99.90;;;;;;5036013;28;20548;-64
2022/02/03 00:24:53;;;;;;;11.07;8.80;;;10.70;99.90;;;;;;5034225;28;20428;-67
2022/02/03 00:27:35;;;;;;;11.70;7.70;;;10.70;99.90;;;;;;5034647;28;20529;-71
2022/02/03 00:30:07;;;;;;;13.23;8.83;;;10.80;99.90;;;;;;5034953;28;20764;-69
2022/02/03 00:48:56;;;;;;;10.70;9.60;;;10.90;99.90;;;;;;5034079;28;20483;-65
2022/02/03 00:51:23;;;;;;;12.10;10.00;;;10.90;99.90;;;;;;5043902;28;20427;-71
2022/02/03 00:53:49;;;;;;;13.63;10.63;;;10.90;99.90;;;;;;5054504;28;20418;-65
2022/02/03 00:56:17;;;;;;;11.90;10.47;;;10.90;99.90;;;;;;5036646;28;21032;-65
2022/02/03 00:59:03;;;;;;;11.93;10.10;;;11.00;99.90;;;;;;5053890;28;20427;-65
2022/02/03 01:01:32;;;;;;;11.87;9.80;;;11.00;99.90;;;;;;5041752;28;20435;-66
2022/02/03 01:04:04;;;;;;;13.37;10.80;;;11.00;99.90;;;;;;5016576;28;20413;-65
2022/02/03 01:06:32;;;;;;;13.53;9.80;;;11.10;99.90;;;;;;5015947;28;20946;-66
2022/02/03 01:08:58;;;;;;;14.73;10.23;;;11.10;99.90;;;;;;5034136;28;20865;-66
2022/02/03 01:11:32;;;;;;;14.53;10.57;;;11.10;99.90;;;;;;5044034;28;20546;-71
2022/02/03 01:14:10;;;;;;;13.07;10.60;;;11.10;99.90;;;;;;5054032;28;20448;-65
2022/02/03 01:46:11;;;;;;;13.50;10.53;;;11.20;99.90;;;;;;5043552;28;20429;-66
2022/02/03 01:53:49;;;;;;;12.70;9.77;;;11.20;99.90;;;;;;5032604;28;20426;-65
2022/02/03 01:56:18;;;;;;;11.90;8.80;;;11.30;99.90;;;;;;5013234;28;20906;-66
2022/02/03 01:58:46;;;;;;;13.77;10.00;;;11.30;99.90;;;;;;5052793;28;20426;-66
2022/02/03 02:01:25;;;;;;;13.03;9.83;;;11.30;99.90;;;;;;5053259;28;20422;-65
2022/02/03 02:04:14;;;;;;;10.07;8.30;;;11.30;99.90;;;;;;5046090;28;20551;-65
2022/02/03 02:06:39;;;;;;;11.37;8.33;;;11.30;99.90;;;;;;5031146;28;20424;-65
2022/02/03 02:09:27;;;;;;;10.30;7.93;;;11.30;99.90;;;;;;5033103;28;20421;-65
2022/02/03 02:12:40;;;;;;;9.63;8.20;;;11.30;99.90;;;;;;5033101;28;20396;-65
2022/02/03 02:37:22;;;;;;;8.30;7.40;;;11.40;99.90;;;;;;5032783;28;20449;-66
2022/02/03 02:43:36;;;;;;;9.73;8.67;;;11.40;99.90;;;;;;4974356;28;20506;-65
2022/02/03 02:46:29;;;;;;;12.03;9.60;;;11.40;99.90;;;;;;5032533;28;20429;-65
2022/02/03 02:49:16;;;;;;;12.30;9.10;;;11.40;99.90;;;;;;5031898;28;20425;-66
2022/02/03 02:51:52;;;;;;;12.10;10.40;;;11.40;99.90;;;;;;5031800;28;20415;-65
2022/02/03 02:54:46;;;;;;;12.60;10.50;;;11.40;99.90;;;;;;5033026;28;20416;-66
2022/02/03 02:58:11;;;;;;;15.30;10.60;;;11.40;99.90;;;;;;5034135;28;20459;-65
2022/02/03 03:30:46;;;;;;;14.10;11.37;;;11.50;99.90;;;;;;5071633;28;20414;-76
2022/02/03 03:33:47;;;;;;;14.00;11.90;;;11.50;99.90;;;;;;5070588;28;20457;-67
2022/02/03 03:36:17;;;;;;;13.50;11.37;;;11.50;99.90;;;;;;5062928;28;20454;-67
2022/02/03 03:38:47;;;;;;;13.30;11.40;;;11.50;99.90;;;;;;5050804;28;20849;-67
2022/02/03 03:41:17;;;;;;;13.30;11.10;;;11.50;99.90;;;;;;5051649;28;20435;-67
2022/02/03 03:43:54;;;;;;;13.10;11.70;;;11.50;99.90;;;;;;5050316;28;22079;-67
2022/02/03 03:46:35;;;;;;;14.50;12.10;;;11.60;99.90;;;;;;5051636;28;20486;-67
2022/02/03 03:49:46;;;;;;;13.40;10.90;;;11.50;99.90;;;;;;5051509;28;20420;-67
2022/02/03 03:52:23;;;;;;;14.73;11.47;;;11.50;99.90;;;;;;4990170;28;20430;-67
2022/02/03 03:55:05;;;;;;;15.40;11.73;;;11.50;99.90;;;;;;5043690;28;20455;-68
2022/02/03 04:33:15;;;;;;;16.83;13.37;;;11.50;99.90;;;;;;5054822;28;20409;-67
2022/02/03 04:36:52;;;;;;;18.70;14.47;;;11.30;99.90;;;;;;5053901;28;20959;-68
2022/02/03 05:02:49;;;;;;;19.40;15.07;;;11.30;99.90;;;;;;5034589;28;20479;-67
2022/02/03 05:05:50;;;;;;;20.27;16.80;;;11.30;99.90;;;;;;5034268;28;20408;-67
2022/02/03 05:08:34;;;;;;;16.37;14.47;;;11.30;99.90;;;;;;5051385;28;20415;-68
2022/02/03 05:33:18;;;;;;;12.20;11.00;;;11.30;99.90;;;;;;5054080;28;20930;-67
2022/02/03 05:50:05;;;;;;;11.93;10.27;;;11.20;99.90;;;;;;5053042;28;20444;-68
2022/02/03 05:55:22;;;;;;;10.40;9.40;;;11.10;99.90;;;;;;5052475;28;20807;-68
2022/02/03 06:01:43;;;;;;;10.53;9.23;;;11.10;99.90;;;;;;5053377;28;20401;-68
2022/02/03 06:08:55;;;;;;;10.60;9.60;;;11.20;99.90;;;;;;5052747;28;20418;-74
2022/02/03 06:14:12;;;;;;;10.43;9.43;;;11.20;99.90;;;;;;5052407;28;20403;-73
2022/02/03 06:22:58;;;;;;;13.07;11.07;;;11.10;99.90;;;;;;5052589;28;20459;-68
2022/02/03 06:27:38;;;;;;;11.17;10.07;;;11.30;99.90;;;;;;5052640;28;20484;-67
2022/02/03 06:30:06;;;;;;;12.30;10.63;;;11.30;99.90;;;;;;5040613;28;20449;-68
2022/02/03 06:32:31;;;;;;;13.13;11.83;;;11.20;99.90;;;;;;5033346;28;20463;-67
2022/02/03 06:34:57;;;;;;;11.30;10.17;;;11.20;99.90;;;;;;5031864;28;20420;-68
2022/02/03 06:37:23;;;;;;;11.40;10.20;;;11.10;99.90;;;;;;5032618;28;20189;-67
2022/02/03 06:39:50;;;;;;;14.40;11.80;;;11.10;99.90;;;;;;5031620;28;20515;-68
2022/02/03 06:42:16;;;;;;;10.30;9.27;;;11.10;99.90;;;;;;5019256;28;20422;-67
2022/02/03 06:44:47;;;;;;;11.60;10.50;;;11.10;99.90;;;;;;5051772;28;20423;-75
2022/02/03 06:47:20;;;;;;;12.90;9.87;;;11.00;99.90;;;;;;5050827;28;20965;-67
2022/02/03 06:49:58;;;;;;;10.83;9.63;;;11.00;99.90;;;;;;5033109;28;20522;-68
2022/02/03 06:52:41;;;;;;;12.53;9.40;;;11.10;99.90;;;;;;5052146;28;20495;-67
2022/02/03 06:57:42;;;;;;;10.80;9.70;;;11.10;99.90;;;;;;5052275;28;20416;-68
2022/02/03 07:00:17;;;;;;;12.53;10.60;;;11.10;99.90;;;;;;5051768;28;20486;-67
2022/02/03 07:02:48;;;;;;;11.53;10.40;;;11.10;99.90;;;;;;5050868;28;20407;-67
2022/02/03 07:05:14;;;;;;;11.90;10.50;;;11.10;99.90;;;;;;5051881;28;20432;-67
2022/02/03 07:07:41;;;;;;;9.67;8.77;;;11.10;99.90;;;;;;5022601;28;20434;-68
2022/02/03 07:10:09;;;;;;;10.50;8.10;;;11.10;99.90;;;;;;5031798;28;20430;-68
2022/02/03 07:12:36;;;;;;;9.47;8.47;;;11.10;99.90;;;;;;5032280;28;20457;-68
2022/02/03 07:15:03;;;;;;;10.60;8.93;;;11.10;99.90;;;;;;5030895;28;20760;-66
2022/02/03 07:17:30;;;;;;;10.10;9.10;;;11.10;99.90;;;;;;5016459;28;20929;-67
2022/02/03 07:20:01;;;;;;;9.80;8.87;;;11.10;99.90;;;;;;5034333;28;20794;-67
2022/02/03 07:22:27;;;;;;;11.40;10.20;;;11.10;99.90;;;;;;5039075;28;20465;-72
2022/02/03 07:24:53;;;;;;;8.40;7.60;;;11.20;99.90;;;;;;5037760;28;20454;-68
2022/02/03 07:27:20;;;;;;;8.70;7.80;;;11.20;99.90;;;;;;5032477;28;20408;-68
2022/02/03 07:29:46;;;;;;;8.90;8.10;;;11.20;99.90;;;;;;5032806;28;20276;-75
2022/02/03 07:32:12;;;;;;;9.97;8.97;;;11.20;99.90;;;;;;5042996;28;20504;-67
2022/02/03 07:34:39;;;;;;;10.03;9.03;;;11.30;99.90;;;;;;5031665;28;20270;-68
2022/02/03 07:37:05;;;;;;;12.00;10.63;;;11.20;99.90;;;;;;5035255;28;20219;-68
2022/02/03 07:39:32;;;;;;;10.20;9.23;;;11.30;99.90;;;;;;5034732;28;20412;-68
2022/02/03 07:41:57;;;;;;;10.80;9.80;;;11.30;99.90;;;;;;5031423;28;20424;-70
2022/02/03 07:44:23;;;;;;;12.50;8.40;;;11.30;99.90;;;;;;5025404;28;20429;-68
2022/02/03 07:46:49;;;;;;;10.40;8.37;;;11.30;99.90;;;;;;5029861;28;20202;-69
2022/02/03 07:49:15;;;;;;;10.50;9.20;;;11.30;99.90;;;;;;5045466;28;20204;-70
2022/02/03 07:51:40;;;;;;;10.60;9.50;;;11.30;99.90;;;;;;5038431;28;20785;-68
2022/02/03 07:54:09;;;;;;;9.30;8.40;;;11.20;99.90;;;;;;5050092;28;21075;-69
2022/02/03 07:56:35;;;;;;;10.37;9.27;;;11.30;99.90;;;;;;5051493;28;20211;-69
2022/02/03 07:59:00;;;;;;;11.47;9.77;;;11.20;99.90;;;;;;5050829;28;20414;-69
2022/02/03 08:01:26;;;;;;;11.40;8.60;;;11.20;99.90;;;;;;5054187;28;20946;-69
2022/02/03 08:03:53;;;;;;;11.50;10.47;;;11.20;99.90;;;;;;5036800;28;20212;-69
2022/02/03 08:06:24;;;;;;;10.73;8.90;;;11.20;99.90;;;;;;5055409;28;20425;-69
2022/02/03 08:08:55;;;;;;;10.53;9.63;;;11.30;99.90;;;;;;5054624;28;20755;-69
2022/02/03 08:11:27;;;;;;;9.60;8.60;;;11.30;99.90;;;;;;5053628;28;20424;-69
2022/02/03 08:16:25;;;;;;;8.03;7.23;;;11.30;99.90;;;;;;5033088;28;20491;-69
2022/02/03 08:18:58;;;;;;;9.57;8.57;;;11.30;99.90;;;;;;5034223;28;20177;-69
2022/02/03 08:21:24;;;;;;;8.20;7.40;;;11.30;99.90;;;;;;5035385;28;20467;-69
2022/02/03 08:24:15;;;;;;;8.73;8.03;;;11.30;99.90;;;;;;5051163;28;20423;-69
2022/02/03 08:29:50;;;;;;;7.60;6.87;;;11.20;99.90;;;;;;5054649;28;20452;-70
2022/02/03 08:32:04;;;;;;;8.00;7.30;;;11.30;99.90;;;;;;5053985;28;20420;-67
2022/02/03 08:37:30;;;;;;;7.60;6.90;;;11.30;99.90;;;;;;5024133;28;20479;-67
2022/02/03 08:40:08;;;;;;;11.50;9.80;;;11.20;99.90;;;;;;5054965;28;20426;-68
2022/02/03 08:42:34;;;;;;;19.53;13.90;;;11.20;99.90;;;;;;5050947;28;20421;-66
2022/02/03 08:45:00;;;;;;;10.90;9.90;;;11.20;99.90;;;;;;5034597;28;20488;-66
2022/02/03 08:47:26;;;;;;;9.00;8.10;;;11.20;99.90;;;;;;5035117;28;20412;-66
2022/02/03 08:49:53;;;;;;;9.40;8.50;;;11.20;99.90;;;;;;5034450;28;20425;-66
2022/02/03 08:52:21;;;;;;;8.97;8.17;;;11.20;99.90;;;;;;5035089;28;20172;-66
2022/02/03 08:55:36;;;;;;;9.30;8.30;;;11.20;99.90;;;;;;5034741;28;20464;-71
2022/02/03 08:57:57;;;;;;;10.50;9.23;;;11.20;99.90;;;;;;5024235;28;20491;-68
2022/02/03 09:36:48;;;;;;;8.93;8.23;;;12.50;99.90;;;;;;5033120;28;20450;-66
2022/02/03 09:39:06;;;;;;;9.40;8.23;;;12.30;99.90;;;;;;5028661;28;20429;-67
2022/02/03 09:57:39;;;;;;;9.30;8.50;;;11.60;99.90;;;;;;5033428;28;20466;-65
2022/02/03 10:00:32;;;;;;;8.97;8.10;;;11.50;99.90;;;;;;5050875;28;20428;-66
2022/02/03 10:03:07;;;;;;;8.80;8.10;;;11.30;99.90;;;;;;5052129;28;20500;-66
2022/02/03 10:05:57;;;;;;;9.07;7.90;;;11.20;99.90;;;;;;5035627;28;20412;-66
2022/02/03 10:08:21;;;;;;;9.60;8.60;;;11.30;99.90;;;;;;5053093;28;20452;-66
2022/02/03 10:10:47;;;;;;;9.73;8.83;;;11.30;99.90;;;;;;5053568;28;20447;-66
2022/02/03 10:13:22;;;;;;;7.77;6.97;;;11.20;99.90;;;;;;5052583;28;20172;-66
2022/02/03 10:16:04;;;;;;;9.70;8.80;;;11.20;99.90;;;;;;5053355;28;20462;-66
2022/02/03 10:18:30;;;;;;;8.43;7.70;;;11.10;99.90;;;;;;5053554;28;20424;-66
2022/02/03 10:20:57;;;;;;;8.93;8.03;;;11.10;99.90;;;;;;5052562;28;20471;-66
2022/02/03 10:23:25;;;;;;;7.93;7.23;;;11.10;99.90;;;;;;5052325;28;20998;-66
2022/02/03 10:25:56;;;;;;;8.40;7.30;;;11.10;99.90;;;;;;5053017;28;20418;-66
2022/02/03 10:28:24;;;;;;;7.63;6.93;;;11.10;99.90;;;;;;5053313;28;20400;-66
2022/02/03 10:30:55;;;;;;;8.90;8.10;;;11.10;99.90;;;;;;5053128;28;20499;-66
2022/02/03 10:33:38;;;;;;;10.33;8.90;;;11.10;99.90;;;;;;5053199;28;20397;-66
2022/02/03 10:36:18;;;;;;;9.00;8.17;;;11.10;99.90;;;;;;5052499;28;20871;-66
2022/02/03 10:39:36;;;;;;;10.53;8.40;;;11.10;99.90;;;;;;5053341;28;20439;-66
2022/02/03 10:58:00;;;;;;;9.20;8.30;;;11.20;99.90;;;;;;5052421;28;20785;-66
2022/02/03 11:10:54;;;;;;;7.30;6.70;;;10.90;99.90;;;;;;5052584;28;20773;-66
2022/02/03 11:13:23;;;;;;;8.93;8.13;;;10.70;99.90;;;;;;5052878;28;20456;-66
2022/02/03 11:15:50;;;;;;;8.50;7.70;;;10.70;99.90;;;;;;5052261;28;20499;-66
2022/02/03 11:18:17;;;;;;;8.40;7.60;;;10.60;99.90;;;;;;5051779;28;20717;-65
2022/02/03 11:20:44;;;;;;;9.37;8.57;;;10.50;99.90;;;;;;5052098;28;20794;-66
2022/02/03 11:29:08;;;;;;;9.17;8.27;;;10.30;99.90;;;;;;5051783;28;20433;-65
2022/02/03 11:31:29;;;;;;;10.77;9.30;;;10.30;99.90;;;;;;5040567;28;20416;-69
2022/02/03 11:34:52;;;;;;;11.70;10.60;;;10.20;99.90;;;;;;5052118;28;20422;-66
2022/02/03 11:37:13;;;;;;;9.77;8.77;;;10.20;99.90;;;;;;5045126;28;20466;-66
2022/02/03 11:51:23;;;;;;;11.80;10.70;;;10.20;99.90;;;;;;5034304;28;20456;-66
2022/02/03 11:57:09;;;;;;;12.93;9.70;;;10.10;99.90;;;;;;5055131;28;20535;-67
2022/02/03 12:16:22;;;;;;;9.03;8.23;;;10.10;99.90;;;;;;5055589;28;20449;-66
2022/02/03 12:21:31;;;;;;;10.47;8.80;;;10.10;99.90;;;;;;5055287;28;20466;-66
2022/02/03 12:24:18;;;;;;;9.37;8.57;;;10.10;99.90;;;;;;5055108;28;20448;-66
2022/02/03 12:29:16;;;;;;;9.20;8.30;;;10.20;99.90;;;;;;5054362;28;20443;-66
2022/02/03 12:32:04;;;;;;;7.50;6.80;;;10.20;99.90;;;;;;5055561;28;20392;-66
2022/02/03 12:40:07;;;;;;;7.80;6.93;;;10.10;99.90;;;;;;5023579;28;20431;-68
2022/02/03 12:42:54;;;;;;;8.63;6.73;;;10.10;99.90;;;;;;5055370;28;20405;-66
2022/02/03 12:45:30;;;;;;;7.50;6.83;;;10.20;99.90;;;;;;5054681;28;21121;-66
2022/02/03 12:48:04;;;;;;;6.53;5.97;;;10.10;99.90;;;;;;5054668;28;20417;-66
2022/02/03 12:50:32;;;;;;;6.10;5.60;;;10.10;99.90;;;;;;5055115;28;20422;-65
2022/02/03 12:53:00;;;;;;;6.30;5.70;;;10.10;99.90;;;;;;5055051;28;20426;-66
2022/02/03 12:55:27;;;;;;;7.83;7.03;;;10.10;99.90;;;;;;5055229;28;20503;-66
2022/02/03 12:57:53;;;;;;;5.83;5.33;;;10.00;99.90;;;;;;5036864;28;20946;-66
2022/02/03 13:00:33;;;;;;;6.43;5.83;;;10.00;99.90;;;;;;5054243;28;20806;-67
2022/02/03 13:03:02;;;;;;;7.17;6.47;;;10.10;99.90;;;;;;5055154;28;20401;-66
2022/02/03 13:05:32;;;;;;;5.97;5.57;;;10.10;99.90;;;;;;5054761;28;20417;-66
2022/02/03 13:07:59;;;;;;;7.00;6.30;;;10.10;99.90;;;;;;5054776;28;20463;-66
2022/02/03 13:10:28;;;;;;;7.53;6.90;;;10.10;99.90;;;;;;5054064;28;20765;-66
2022/02/03 13:13:03;;;;;;;5.53;5.13;;;10.10;99.90;;;;;;5054698;28;20418;-66
2022/02/03 13:15:40;;;;;;;6.97;6.37;;;10.10;99.90;;;;;;5054540;28;20450;-66
2022/02/03 13:18:13;;;;;;;7.87;7.30;;;10.10;99.90;;;;;;5053913;28;20426;-66
2022/02/03 13:20:45;;;;;;;7.30;6.43;;;10.10;99.90;;;;;;5054120;28;20480;-66
2022/02/03 13:23:16;;;;;;;9.30;8.40;;;10.10;99.90;;;;;;5053935;28;20416;-66
2022/02/03 13:25:55;;;;;;;6.20;5.70;;;10.20;99.90;;;;;;5054640;28;20767;-66
2022/02/03 13:31:36;;;;;;;7.17;5.00;;;10.20;99.90;;;;;;5054302;28;20388;-65
2022/02/03 13:34:16;;;;;;;6.23;5.63;;;10.20;99.90;;;;;;5036380;28;20816;-66
2022/02/03 13:36:48;;;;;;;8.50;6.10;;;10.20;99.90;;;;;;5053615;28;20448;-66
2022/02/03 13:39:26;;;;;;;7.60;6.13;;;10.30;99.90;;;;;;5053495;28;20983;-66
2022/02/03 13:42:29;;;;;;;5.60;5.10;;;10.20;99.90;;;;;;5054252;28;20393;-66
2022/02/03 13:45:09;;;;;;;6.97;6.33;;;10.20;99.90;;;;;;5037654;28;20440;-66
2022/02/03 13:47:36;;;;;;;6.00;5.50;;;10.20;99.90;;;;;;5053248;28;20435;-66
2022/02/03 13:50:32;;;;;;;7.73;7.10;;;10.20;99.90;;;;;;5036048;28;20838;-66
2022/02/03 13:53:12;;;;;;;6.00;5.50;;;10.20;99.90;;;;;;5019635;28;20422;-65
2022/02/03 14:13:30;;;;;;;8.77;7.37;;;10.10;99.90;;;;;;5052947;28;20385;-66
2022/02/03 14:15:51;;;;;;;7.73;6.90;;;10.10;99.90;;;;;;5053234;28;20511;-66
2022/02/03 14:21:00;;;;;;;7.67;6.97;;;9.90;99.90;;;;;;5051916;28;21117;-65
2022/02/03 14:28:36;;;;;;;8.73;8.03;;;9.90;99.90;;;;;;5053417;28;20257;-66
2022/02/03 14:31:05;;;;;;;7.80;7.20;;;9.90;99.90;;;;;;5053159;28;20445;-65
2022/02/03 14:33:35;;;;;;;6.60;6.00;;;9.90;99.90;;;;;;5052594;28;20413;-66
2022/02/03 14:36:13;;;;;;;6.97;6.37;;;9.90;99.90;;;;;;5052810;28;20499;-66
2022/02/03 14:41:24;;;;;;;9.03;7.87;;;10.00;99.90;;;;;;5052522;28;20403;-66
2022/02/03 14:43:51;;;;;;;8.17;7.37;;;10.00;99.90;;;;;;5047877;28;20887;-66
2022/02/03 14:46:18;;;;;;;7.70;7.03;;;10.10;99.90;;;;;;5031774;28;20432;-66
2022/02/03 14:48:44;;;;;;;8.30;7.50;;;10.10;99.90;;;;;;5032286;28;20913;-66
2022/02/03 14:51:18;;;;;;;8.47;7.77;;;10.20;99.90;;;;;;5034746;28;20509;-66
2022/02/03 14:54:08;;;;;;;8.60;7.80;;;10.10;99.90;;;;;;5039297;28;20496;-65
2022/02/03 14:59:19;;;;;;;7.43;6.80;;;10.00;99.90;;;;;;5042224;28;20425;-66
2022/02/03 15:01:45;;;;;;;7.83;7.23;;;10.00;99.90;;;;;;5035196;28;20761;-66
2022/02/03 15:04:15;;;;;;;8.73;7.53;;;9.90;99.90;;;;;;5051777;28;20679;-66
2022/02/03 15:06:45;;;;;;;7.23;6.60;;;10.00;99.90;;;;;;5034303;28;20413;-66
2022/02/03 15:14:15;;;;;;;6.60;6.03;;;10.00;99.90;;;;;;5032038;28;20415;-66
2022/02/03 15:16:40;;;;;;;7.10;6.50;;;10.00;99.90;;;;;;5040210;28;20864;-66
2022/02/03 15:19:06;;;;;;;5.30;4.70;;;10.10;99.90;;;;;;5037022;28;20493;-66
2022/02/03 15:21:32;;;;;;;8.47;7.87;;;10.00;99.90;;;;;;5036049;28;20250;-66
2022/02/03 15:23:58;;;;;;;8.53;7.83;;;10.00;99.90;;;;;;5032698;28;20428;-65
2022/02/03 15:26:24;;;;;;;7.27;6.57;;;10.00;99.90;;;;;;5033969;28;20187;-66
2022/02/03 15:28:50;;;;;;;6.63;6.13;;;10.00;99.90;;;;;;5033216;28;20474;-66
2022/02/03 15:31:19;;;;;;;6.80;6.20;;;10.00;99.90;;;;;;5039095;28;20429;-66
2022/02/03 15:33:52;;;;;;;7.13;6.43;;;10.00;99.90;;;;;;5044601;28;20508;-66
2022/02/03 15:36:17;;;;;;;7.93;7.23;;;10.10;99.90;;;;;;5051699;28;20437;-66
2022/02/03 15:38:47;;;;;;;9.20;8.30;;;10.10;99.90;;;;;;5049702;28;20452;-66
2022/02/03 15:41:21;;;;;;;8.87;6.80;;;10.10;99.90;;;;;;5034635;28;20241;-66
2022/02/03 15:43:49;;;;;;;7.47;6.77;;;10.10;99.90;;;;;;5032343;28;20466;-66
2022/02/03 15:46:17;;;;;;;8.77;8.07;;;10.10;99.90;;;;;;5014162;28;20785;-66
2022/02/03 15:48:59;;;;;;;7.70;6.90;;;10.00;99.90;;;;;;5032398;28;20838;-66
2022/02/03 16:18:32;;;;;;;10.20;9.30;;;9.90;99.90;;;;;;4980154;28;20562;-66
2022/02/03 16:21:09;;;;;;;8.93;8.13;;;10.00;99.90;;;;;;5019208;28;20471;-66
2022/02/03 16:50:45;;;;;;;11.10;9.90;;;9.80;99.90;;;;;;5056889;28;20515;-65
2022/02/03 16:53:11;;;;;;;12.10;11.00;;;9.80;99.90;;;;;;5068231;28;20426;-65
2022/02/03 16:55:39;;;;;;;12.13;10.93;;;9.80;99.90;;;;;;5070552;28;20462;-64
2022/02/03 16:58:08;;;;;;;135.17;79.17;;;9.90;99.90;;;;;;5064295;28;20366;-65
2022/02/03 17:00:35;;;;;;;34.07;24.30;;;10.00;99.90;;;;;;5062597;28;21080;-65
2022/02/03 17:03:01;;;;;;;11.80;10.70;;;10.00;99.90;;;;;;5054921;28;20411;-65
2022/02/03 17:05:27;;;;;;;12.60;11.33;;;10.10;99.90;;;;;;5053114;28;20419;-65
2022/02/03 17:07:53;;;;;;;12.30;11.10;;;10.10;99.90;;;;;;5054761;28;20415;-65
2022/02/03 17:10:19;;;;;;;13.30;12.07;;;10.10;99.90;;;;;;5070029;28;20423;-65
2022/02/03 17:12:45;;;;;;;12.73;11.40;;;10.10;99.90;;;;;;5054450;28;20451;-65
2022/02/03 17:15:11;;;;;;;12.97;11.63;;;10.00;99.90;;;;;;5058960;28;20424;-65
2022/02/03 17:17:37;;;;;;;15.03;13.43;;;10.10;99.90;;;;;;5066633;28;20678;-65
2022/02/03 17:20:03;;;;;;;13.13;11.93;;;9.90;99.90;;;;;;5060634;28;20429;-65
2022/02/03 17:22:34;;;;;;;13.47;12.07;;;9.90;99.90;;;;;;5040315;28;20535;-65
2022/02/03 17:27:32;;;;;;;15.43;13.93;;;10.00;99.90;;;;;;5032671;28;20801;-64
2022/02/03 17:30:08;;;;;;;15.57;12.40;;;10.00;99.90;;;;;;5040818;28;20169;-66
2022/02/03 18:10:53;;;;;;;15.40;12.93;;;10.00;99.90;;;;;;5032270;28;20910;-65
2022/02/03 18:51:15;;;;;;;14.20;12.47;;;10.20;99.90;;;;;;5028688;28;20958;-65
2022/02/03 18:53:59;;;;;;;20.00;15.30;;;10.20;99.90;;;;;;5052373;28;20756;-65
2022/02/03 18:56:35;;;;;;;17.40;14.40;;;10.20;99.90;;;;;;5031970;28;20491;-65
2022/02/03 18:59:14;;;;;;;17.13;13.57;;;10.20;99.90;;;;;;5032918;28;20398;-65
2022/02/03 20:04:15;;;;;;;18.63;13.70;;;10.30;99.90;;;;;;5045871;28;20700;-66
2022/02/03 20:09:24;;;;;;;16.70;13.20;;;10.30;99.90;;;;;;5046662;28;20804;-65
2022/02/03 20:11:50;;;;;;;15.07;13.47;;;10.30;99.90;;;;;;5044555;28;20650;-65
2022/02/03 20:14:19;;;;;;;15.10;13.07;;;10.40;99.90;;;;;;5049904;28;20420;-65
2022/02/03 20:16:45;;;;;;;14.50;13.00;;;10.30;99.90;;;;;;5054957;28;20558;-65
2022/02/03 20:19:11;;;;;;;15.50;13.90;;;10.40;99.90;;;;;;5047244;28;20508;-65
2022/02/03 20:21:39;;;;;;;16.23;13.20;;;10.40;99.90;;;;;;5047843;28;20490;-65
2022/02/03 20:24:06;;;;;;;15.00;12.60;;;10.30;99.90;;;;;;5035668;28;20430;-65
2022/02/03 20:26:33;;;;;;;14.90;13.50;;;10.30;99.90;;;;;;5034924;28;20425;-65
2022/02/03 20:28:59;;;;;;;14.70;13.20;;;10.30;99.90;;;;;;5035520;28;20445;-65
2022/02/03 20:31:25;;;;;;;16.50;13.33;;;10.30;99.90;;;;;;5035444;28;20417;-66
2022/02/03 20:33:51;;;;;;;15.80;13.33;;;10.30;99.90;;;;;;5034871;28;20471;-66
2022/02/03 20:36:16;;;;;;;16.53;14.40;;;10.30;99.90;;;;;;5035353;28;20211;-66
2022/02/03 20:38:43;;;;;;;14.03;12.53;;;10.40;99.90;;;;;;5053017;28;20424;-66
2022/02/03 20:41:09;;;;;;;17.20;13.27;;;10.40;99.90;;;;;;5055273;28;20183;-66
2022/02/03 20:43:35;;;;;;;15.53;13.93;;;10.40;99.90;;;;;;5049520;28;20441;-66
2022/02/03 20:46:00;;;;;;;14.80;12.43;;;10.40;99.90;;;;;;5047162;28;20420;-66
2022/02/03 20:48:29;;;;;;;15.40;13.00;;;10.30;99.90;;;;;;5037076;28;20466;-66
2022/02/03 20:50:56;;;;;;;15.20;12.13;;;10.30;99.90;;;;;;5035648;28;20827;-66
2022/02/03 20:53:22;;;;;;;16.03;13.03;;;10.30;99.90;;;;;;5052361;28;20916;-65
2022/02/03 20:55:48;;;;;;;13.83;11.90;;;10.20;99.90;;;;;;5046130;28;20560;-66
2022/02/03 20:58:17;;;;;;;14.93;12.50;;;10.30;99.90;;;;;;5038866;28;20919;-65
2022/02/03 21:00:55;;;;;;;17.20;12.03;;;10.30;99.90;;;;;;5033668;28;20230;-66
2022/02/03 21:03:35;;;;;;;14.50;12.20;;;10.30;99.90;;;;;;5052403;28;20508;-65
2022/02/03 21:06:04;;;;;;;17.27;12.83;;;10.20;99.90;;;;;;5054804;28;20405;-65
2022/02/03 21:08:33;;;;;;;16.90;12.77;;;10.20;99.90;;;;;;5053636;28;20411;-71
2022/02/03 21:11:00;;;;;;;16.10;13.57;;;10.10;99.90;;;;;;5054276;28;20406;-66
2022/02/03 21:13:27;;;;;;;17.70;13.33;;;10.10;99.90;;;;;;5053972;28;20863;-66
2022/02/03 21:15:53;;;;;;;16.63;13.37;;;10.10;99.90;;;;;;5053056;28;20748;-70
2022/02/03 21:18:20;;;;;;;16.13;13.77;;;10.10;99.90;;;;;;5033959;28;20431;-66
2022/02/03 21:20:47;;;;;;;20.60;14.43;;;10.20;99.90;;;;;;5032944;28;20909;-66
2022/02/03 21:23:13;;;;;;;15.17;13.07;;;10.20;99.90;;;;;;5034229;28;20454;-66
2022/02/03 21:25:43;;;;;;;16.60;13.60;;;10.30;99.90;;;;;;5015380;28;20957;-67
2022/02/03 21:28:16;;;;;;;17.90;14.00;;;10.30;99.90;;;;;;5033971;28;20402;-66
2022/02/03 21:30:43;;;;;;;16.53;12.17;;;10.30;99.90;;;;;;5033183;28;20396;-67
2022/02/03 21:33:13;;;;;;;14.87;12.90;;;10.30;99.90;;;;;;5051079;28;20898;-66
2022/02/03 21:35:41;;;;;;;14.10;11.93;;;10.30;99.90;;;;;;5052842;28;20489;-67
2022/02/03 21:38:07;;;;;;;14.37;12.07;;;10.20;99.90;;;;;;5053542;28;20892;-66
2022/02/03 21:40:33;;;;;;;14.60;12.97;;;10.20;99.90;;;;;;5033679;28;20481;-72
2022/02/03 21:43:02;;;;;;;13.63;12.00;;;10.20;99.90;;;;;;5036064;28;20431;-66
2022/02/03 21:45:30;;;;;;;14.57;12.63;;;10.20;99.90;;;;;;5040575;28;20443;-65
2022/02/03 21:47:56;;;;;;;15.47;13.13;;;10.30;99.90;;;;;;5032985;28;20454;-65
2022/02/03 21:50:22;;;;;;;15.53;13.13;;;10.30;99.90;;;;;;5033875;28;20481;-65
2022/02/03 21:52:52;;;;;;;15.13;13.57;;;10.30;99.90;;;;;;5032532;28;20425;-65
2022/02/03 21:55:19;;;;;;;16.37;13.90;;;10.30;99.90;;;;;;5033294;28;20172;-65
2022/02/03 21:57:48;;;;;;;18.30;14.63;;;10.20;99.90;;;;;;5033755;28;20523;-66
2022/02/03 22:00:16;;;;;;;15.23;13.63;;;10.30;99.90;;;;;;5033853;28;20940;-66
2022/02/03 22:02:42;;;;;;;16.17;13.70;;;10.30;99.90;;;;;;5038291;28;20506;-67
2022/02/03 22:05:11;;;;;;;16.07;14.03;;;10.30;99.90;;;;;;5039907;28;20481;-65
2022/02/03 22:07:42;;;;;;;17.80;15.30;;;10.30;99.90;;;;;;5017598;28;20437;-66
2022/02/03 22:10:10;;;;;;;17.17;14.70;;;10.30;99.90;;;;;;5030267;28;20842;-65
2022/02/03 22:12:35;;;;;;;15.20;13.60;;;10.30;99.90;;;;;;5046462;28;20782;-72
2022/02/03 22:15:03;;;;;;;18.07;14.30;;;10.30;99.90;;;;;;5052507;28;20428;-66
2022/02/03 22:17:28;;;;;;;17.10;13.70;;;10.30;99.90;;;;;;5035026;28;20477;-64
2022/02/03 22:19:55;;;;;;;17.70;14.57;;;10.30;99.90;;;;;;5044451;28;20428;-66
2022/02/03 22:44:00;;;;;;;14.07;11.67;;;10.40;99.90;;;;;;5051939;28;20431;-65
2022/02/03 22:49:06;;;;;;;16.23;12.80;;;10.30;99.90;;;;;;5051133;28;20416;-66
2022/02/03 22:51:34;;;;;;;16.13;13.00;;;10.40;99.90;;;;;;5032760;28;20922;-66
2022/02/03 22:54:00;;;;;;;14.40;11.90;;;10.40;99.90;;;;;;5013969;28;20420;-66
2022/02/03 22:56:26;;;;;;;14.90;12.30;;;10.40;99.90;;;;;;5032619;28;20880;-65
2022/02/03 23:01:36;;;;;;;14.70;12.30;;;10.40;99.90;;;;;;5031575;28;20401;-67
2022/02/03 23:04:02;;;;;;;16.17;13.60;;;10.40;99.90;;;;;;5032316;28;20481;-65
2022/02/03 23:06:28;;;;;;;14.10;12.53;;;10.40;99.90;;;;;;5032317;28;20221;-65
2022/02/03 23:09:07;;;;;;;17.83;14.07;;;10.40;99.90;;;;;;5013611;28;20458;-65
2022/02/03 23:24:11;;;;;;;16.30;13.40;;;10.30;99.90;;;;;;5032092;28;20435;-65
2022/02/03 23:26:37;;;;;;;17.40;13.37;;;10.30;99.90;;;;;;5032133;28;20485;-65
2022/02/03 23:29:14;;;;;;;16.93;14.37;;;10.40;99.90;;;;;;5031284;28;20469;-65
2022/02/03 23:31:57;;;;;;;16.77;13.47;;;10.40;99.90;;;;;;5035577;28;20471;-71
2022/02/03 23:34:23;;;;;;;17.47;13.07;;;10.40;99.90;;;;;;5036050;28;20804;-65
2022/02/03 23:36:49;;;;;;;19.67;14.53;;;10.30;99.90;;;;;;5038449;28;20453;-66
2022/02/03 23:39:45;;;;;;;15.47;13.17;;;10.40;99.90;;;;;;5037762;28;20185;-66
2022/02/03 23:44:42;;;;;;;14.73;12.67;;;10.40;99.90;;;;;;5055977;28;20415;-65
